Time;durP1;ratioP1;P1;durP2;ratioP2;P2;SDS_P1;SDS_P2;PMS_P1;PMS_P2;Temp;Humidity;BMP_temperature;BMP_pressure;BME280_temperature;BME280_humidity;BME280_pressure;Samples;Min_cycle;Max_cycle;Signal;HPM_P1;HPM_P2
2023/05/18 00:00:54;;;;;;;7.82;3.00;;;3.50;99.90;;;;;;2052712;28;20616;-64
2023/05/18 00:01:55;;;;;;;7.20;3.53;;;3.50;99.90;;;;;;2058239;28;20181;-64
2023/05/18 00:02:56;;;;;;;7.80;3.20;;;3.50;99.90;;;;;;2059266;28;20251;-62
2023/05/18 00:03:57;;;;;;;6.80;3.05;;;3.40;99.90;;;;;;2057893;28;20193;-65
2023/05/18 00:05:00;;;;;;;6.00;3.60;;;3.40;99.90;;;;;;2057769;28;20648;-64
2023/05/18 00:06:03;;;;;;;9.75;3.17;;;3.40;99.90;;;;;;2067974;28;20227;-64
2023/05/18 00:07:05;;;;;;;5.90;3.22;;;3.50;99.90;;;;;;2060783;28;20238;-65
2023/05/18 00:08:06;;;;;;;7.00;2.90;;;3.50;99.90;;;;;;2064601;28;20242;-65
2023/05/18 00:09:06;;;;;;;7.53;3.93;;;3.50;99.90;;;;;;2059219;28;20263;-69
2023/05/18 00:10:08;;;;;;;5.77;3.33;;;3.50;99.90;;;;;;2058925;28;20319;-68
2023/05/18 00:11:10;;;;;;;7.88;3.35;;;3.50;99.90;;;;;;2059196;28;20265;-67
2023/05/18 00:12:10;;;;;;;7.57;3.10;;;3.50;99.90;;;;;;2058125;28;20621;-67
2023/05/18 00:13:11;;;;;;;6.00;3.73;;;3.50;99.90;;;;;;2058990;28;20249;-67
2023/05/18 00:14:12;;;;;;;10.10;3.50;;;3.60;99.90;;;;;;2064600;28;20237;-67
2023/05/18 00:15:13;;;;;;;5.87;3.50;;;3.60;99.90;;;;;;2063636;28;20266;-67
2023/05/18 00:16:14;;;;;;;7.47;3.77;;;3.50;99.90;;;;;;2063343;28;20235;-66
2023/05/18 00:17:15;;;;;;;6.57;4.10;;;3.60;99.90;;;;;;2064728;28;20242;-66
2023/05/18 00:18:16;;;;;;;6.15;3.50;;;3.60;99.90;;;;;;2054039;28;20229;-66
2023/05/18 00:19:19;;;;;;;4.87;3.30;;;3.50;99.90;;;;;;2049764;28;20729;-66
2023/05/18 00:20:20;;;;;;;6.13;3.22;;;3.50;99.90;;;;;;2052512;28;20269;-66
2023/05/18 00:21:21;;;;;;;4.47;2.95;;;3.60;99.90;;;;;;2059960;28;20236;-66
2023/05/18 00:22:22;;;;;;;8.87;3.47;;;3.50;99.90;;;;;;2064169;28;20277;-66
2023/05/18 00:23:28;;;;;;;5.60;2.97;;;3.60;99.90;;;;;;2064939;28;20241;-67
2023/05/18 00:24:29;;;;;;;6.70;3.80;;;3.60;99.90;;;;;;2061312;28;20234;-67
2023/05/18 00:25:30;;;;;;;4.80;3.15;;;3.60;99.90;;;;;;2056456;28;20230;-66
2023/05/18 00:26:31;;;;;;;7.70;3.53;;;3.60;99.90;;;;;;2064916;28;20224;-66
2023/05/18 00:27:32;;;;;;;6.77;3.37;;;3.60;99.90;;;;;;2058113;28;20232;-66
2023/05/18 00:28:32;;;;;;;6.50;3.50;;;3.60;99.90;;;;;;2043354;28;20303;-66
2023/05/18 00:29:33;;;;;;;10.63;3.87;;;3.50;99.90;;;;;;2047935;28;20237;-66
2023/05/18 00:30:34;;;;;;;7.28;4.40;;;3.50;99.90;;;;;;2060074;28;20241;-66
2023/05/18 00:31:37;;;;;;;8.47;2.90;;;3.60;99.90;;;;;;2057506;28;20257;-66
2023/05/18 00:32:39;;;;;;;4.78;3.20;;;3.60;99.90;;;;;;2058055;28;20717;-66
2023/05/18 00:33:39;;;;;;;6.47;3.30;;;3.60;99.90;;;;;;2056643;28;20240;-67
2023/05/18 00:34:40;;;;;;;7.90;3.70;;;3.60;99.90;;;;;;2054543;28;20619;-69
2023/05/18 00:35:41;;;;;;;4.50;2.97;;;3.60;99.90;;;;;;2060640;28;20203;-69
2023/05/18 00:36:42;;;;;;;7.97;4.10;;;3.50;99.90;;;;;;2045667;28;20327;-68
2023/05/18 00:37:42;;;;;;;5.50;3.10;;;3.50;99.90;;;;;;2037034;28;20203;-68
2023/05/18 00:38:43;;;;;;;5.80;3.03;;;3.50;99.90;;;;;;2064951;28;20224;-68
2023/05/18 00:39:44;;;;;;;9.77;4.23;;;3.60;99.90;;;;;;2064593;28;20196;-67
2023/05/18 00:40:45;;;;;;;12.37;3.40;;;3.60;99.90;;;;;;2063751;28;20181;-66
2023/05/18 00:41:45;;;;;;;9.07;3.70;;;3.50;99.90;;;;;;2062725;28;20267;-67
2023/05/18 00:42:46;;;;;;;5.17;3.40;;;3.60;99.90;;;;;;2060117;28;20209;-67
2023/05/18 00:43:48;;;;;;;6.90;4.50;;;3.50;99.90;;;;;;2060736;28;20193;-67
2023/05/18 00:44:48;;;;;;;5.97;3.60;;;3.50;99.90;;;;;;2070133;28;20302;-67
2023/05/18 00:45:49;;;;;;;11.87;3.60;;;3.50;99.90;;;;;;2060535;28;20233;-67
2023/05/18 00:46:50;;;;;;;6.88;3.70;;;3.60;99.90;;;;;;2064804;28;20189;-67
2023/05/18 00:47:51;;;;;;;8.33;3.80;;;3.60;99.90;;;;;;2062070;28;20270;-67
2023/05/18 00:48:55;;;;;;;7.63;3.30;;;3.60;99.90;;;;;;2058349;28;20186;-67
2023/05/18 00:49:56;;;;;;;5.78;3.53;;;3.50;99.90;;;;;;2053040;28;20201;-67
2023/05/18 00:50:57;;;;;;;7.23;3.83;;;3.60;99.90;;;;;;2041064;28;20246;-67
2023/05/18 00:51:58;;;;;;;5.37;3.33;;;3.50;99.90;;;;;;2055854;28;20321;-67
2023/05/18 00:52:59;;;;;;;7.40;4.27;;;3.50;99.90;;;;;;2058494;28;20296;-67
2023/05/18 00:54:02;;;;;;;5.85;3.55;;;3.40;99.90;;;;;;2043274;28;20233;-66
2023/05/18 00:55:05;;;;;;;4.65;3.33;;;3.50;99.90;;;;;;2045191;28;20241;-67
2023/05/18 00:56:06;;;;;;;7.70;3.33;;;3.50;99.90;;;;;;2051511;28;20236;-67
2023/05/18 00:57:07;;;;;;;6.32;3.70;;;3.40;99.90;;;;;;2051171;28;20240;-67
2023/05/18 00:58:09;;;;;;;6.13;3.70;;;3.50;99.90;;;;;;2061508;28;20236;-67
2023/05/18 00:59:11;;;;;;;6.85;3.50;;;3.40;99.90;;;;;;2061211;28;20786;-67
2023/05/18 01:00:14;;;;;;;4.45;3.03;;;3.40;99.90;;;;;;2054908;28;20295;-67
2023/05/18 01:01:16;;;;;;;6.15;4.25;;;3.40;99.90;;;;;;2057377;28;20245;-67
2023/05/18 01:02:17;;;;;;;6.15;3.33;;;3.50;99.90;;;;;;2048102;28;20344;-67
2023/05/18 01:03:20;;;;;;;5.10;3.13;;;3.40;99.90;;;;;;2056785;28;20234;-67
2023/05/18 01:04:24;;;;;;;6.22;3.47;;;3.40;99.90;;;;;;2060800;28;20256;-67
2023/05/18 01:05:25;;;;;;;5.28;3.05;;;3.30;99.90;;;;;;2051484;28;20701;-66
2023/05/18 01:06:26;;;;;;;6.00;3.97;;;3.40;99.90;;;;;;2056851;28;20245;-66
2023/05/18 01:07:27;;;;;;;7.93;3.57;;;3.30;99.90;;;;;;2054931;28;20280;-66
2023/05/18 01:08:27;;;;;;;5.10;3.03;;;3.30;99.90;;;;;;2058038;28;20328;-67
2023/05/18 01:09:28;;;;;;;6.43;3.20;;;3.30;99.90;;;;;;2049711;28;20662;-67
2023/05/18 01:10:33;;;;;;;6.60;4.20;;;3.30;99.90;;;;;;2051187;28;20610;-67
2023/05/18 01:11:43;;;;;;;7.32;3.58;;;3.40;99.90;;;;;;2046327;28;20249;-67
2023/05/18 01:13:00;;;;;;;6.38;3.58;;;3.40;99.90;;;;;;2044494;28;20788;-68
2023/05/18 01:14:48;;;;;;;8.50;3.70;;;3.40;99.90;;;;;;2050858;28;20241;-67
2023/05/18 01:15:53;;;;;;;8.50;3.90;;;3.30;99.90;;;;;;2050301;28;20228;-67
2023/05/18 01:17:03;;;;;;;7.15;3.67;;;3.30;99.90;;;;;;2055137;28;20189;-67
2023/05/18 01:18:27;;;;;;;7.30;3.80;;;3.30;99.90;;;;;;2056429;28;20316;-67
2023/05/18 01:19:52;;;;;;;8.70;3.30;;;3.20;99.90;;;;;;2060291;28;20224;-67
2023/05/18 01:21:12;;;;;;;4.65;2.97;;;3.20;99.90;;;;;;2056882;28;20202;-67
2023/05/18 01:22:51;;;;;;;7.30;3.55;;;3.20;99.90;;;;;;2057629;28;20232;-67
2023/05/18 01:24:16;;;;;;;6.82;3.28;;;3.30;99.90;;;;;;2062734;28;20226;-66
2023/05/18 01:25:47;;;;;;;8.57;3.50;;;3.30;99.90;;;;;;2068705;28;20265;-67
2023/05/18 01:26:49;;;;;;;8.90;3.22;;;3.20;99.90;;;;;;2059929;28;20227;-67
2023/05/18 01:27:51;;;;;;;11.20;4.03;;;3.20;99.90;;;;;;2055940;28;20195;-67
2023/05/18 01:28:53;;;;;;;6.82;3.58;;;3.30;99.90;;;;;;2055658;28;20179;-67
2023/05/18 01:29:56;;;;;;;19.38;4.88;;;3.30;99.90;;;;;;2056152;28;20192;-67
2023/05/18 01:30:57;;;;;;;6.38;3.55;;;3.30;99.90;;;;;;2051298;28;20649;-66
2023/05/18 01:31:58;;;;;;;4.57;3.25;;;3.30;99.90;;;;;;2060168;28;20183;-66
2023/05/18 01:32:59;;;;;;;7.90;3.40;;;3.30;99.90;;;;;;2058192;28;20204;-67
2023/05/18 01:34:00;;;;;;;6.93;3.20;;;3.30;99.90;;;;;;2061837;28;20243;-67
2023/05/18 01:35:01;;;;;;;5.23;3.33;;;3.30;99.90;;;;;;2061066;28;20323;-67
2023/05/18 01:36:01;;;;;;;5.47;3.00;;;3.30;99.90;;;;;;2057910;28;20561;-67
2023/05/18 01:37:03;;;;;;;6.37;3.30;;;3.20;99.90;;;;;;2061657;28;20692;-67
2023/05/18 01:38:04;;;;;;;9.35;3.70;;;3.20;99.90;;;;;;2065071;28;20654;-67
2023/05/18 01:39:05;;;;;;;5.83;3.27;;;3.20;99.90;;;;;;2070989;28;20234;-67
2023/05/18 01:40:08;;;;;;;9.67;3.47;;;3.20;99.90;;;;;;2060852;28;20325;-67
2023/05/18 01:41:25;;;;;;;5.82;3.20;;;3.20;99.90;;;;;;2060051;28;20230;-67
2023/05/18 01:42:29;;;;;;;8.82;3.53;;;3.20;99.90;;;;;;2062038;28;20699;-67
2023/05/18 01:43:37;;;;;;;6.75;3.35;;;3.20;99.90;;;;;;2063702;28;20231;-65
2023/05/18 01:45:02;;;;;;;7.78;3.65;;;3.20;99.90;;;;;;2056236;28;20243;-66
2023/05/18 01:46:50;;;;;;;8.27;3.30;;;3.20;99.90;;;;;;2041330;28;20234;-67
2023/05/18 01:47:55;;;;;;;6.28;3.25;;;3.10;99.90;;;;;;2049558;28;20254;-66
2023/05/18 01:49:04;;;;;;;6.55;3.35;;;3.20;99.90;;;;;;2053347;28;20182;-67
2023/05/18 01:50:25;;;;;;;4.28;2.92;;;3.10;99.90;;;;;;2053231;28;20275;-67
2023/05/18 01:51:33;;;;;;;5.05;3.30;;;3.10;99.90;;;;;;2046187;28;20233;-67
2023/05/18 01:52:47;;;;;;;5.40;3.80;;;3.10;99.90;;;;;;2028307;28;20716;-66
2023/05/18 01:53:59;;;;;;;8.13;3.00;;;3.00;99.90;;;;;;2054388;28;20236;-67
2023/05/18 01:55:03;;;;;;;5.20;3.15;;;3.10;99.90;;;;;;2052608;28;20317;-67
2023/05/18 01:56:07;;;;;;;7.72;3.72;;;3.10;99.90;;;;;;2052134;28;20733;-67
2023/05/18 01:57:08;;;;;;;5.97;3.00;;;3.10;99.90;;;;;;2058622;28;20747;-67
2023/05/18 01:58:11;;;;;;;9.10;3.83;;;3.10;99.90;;;;;;2055612;28;20235;-67
2023/05/18 01:59:13;;;;;;;8.13;3.78;;;3.10;99.90;;;;;;2058983;28;20235;-67
2023/05/18 02:00:17;;;;;;;9.25;4.00;;;3.10;99.90;;;;;;2047654;28;20356;-67
2023/05/18 02:01:21;;;;;;;7.18;3.83;;;3.10;99.90;;;;;;2048728;28;20243;-67
2023/05/18 02:02:22;;;;;;;6.05;3.20;;;3.00;99.90;;;;;;2061240;28;20248;-67
2023/05/18 02:03:23;;;;;;;7.00;3.27;;;3.10;99.90;;;;;;2062688;28;20236;-67
2023/05/18 02:04:23;;;;;;;7.80;3.30;;;3.10;99.90;;;;;;2060167;28;20263;-67
2023/05/18 02:05:24;;;;;;;8.87;3.00;;;3.10;99.90;;;;;;2060014;28;20246;-67
2023/05/18 02:06:25;;;;;;;5.55;3.30;;;3.10;99.90;;;;;;2060085;28;20695;-67
2023/05/18 02:07:26;;;;;;;6.33;3.03;;;3.10;99.90;;;;;;2054658;28;20234;-67
2023/05/18 02:08:27;;;;;;;8.30;3.30;;;3.20;99.90;;;;;;2055517;28;20241;-67
2023/05/18 02:09:27;;;;;;;8.57;3.40;;;3.20;99.90;;;;;;2038377;28;20775;-67
2023/05/18 02:10:28;;;;;;;8.93;3.20;;;3.20;99.90;;;;;;2045663;28;20279;-67
2023/05/18 02:11:29;;;;;;;6.63;3.65;;;3.20;99.90;;;;;;2062237;28;20259;-67
2023/05/18 02:12:30;;;;;;;7.45;3.53;;;3.20;99.90;;;;;;2061994;28;20235;-65
2023/05/18 02:13:31;;;;;;;10.57;3.50;;;3.10;99.90;;;;;;2047475;28;20241;-67
2023/05/18 02:14:33;;;;;;;5.70;3.50;;;3.10;99.90;;;;;;2048456;28;20252;-67
2023/05/18 02:15:35;;;;;;;7.60;3.70;;;3.10;99.90;;;;;;2048779;28;20250;-67
2023/05/18 02:16:35;;;;;;;6.43;2.97;;;3.00;99.90;;;;;;2056614;28;20237;-67
2023/05/18 02:17:36;;;;;;;6.87;3.50;;;3.10;99.90;;;;;;2070757;28;20267;-67
2023/05/18 02:18:38;;;;;;;7.22;3.30;;;3.10;99.90;;;;;;2056000;28;20279;-67
2023/05/18 02:19:39;;;;;;;8.23;3.83;;;3.10;99.90;;;;;;2063655;28;20240;-67
2023/05/18 02:20:41;;;;;;;7.20;3.53;;;3.10;99.90;;;;;;2054526;28;20624;-68
2023/05/18 02:21:42;;;;;;;6.05;2.97;;;3.00;99.90;;;;;;2055882;28;20204;-67
2023/05/18 02:22:44;;;;;;;5.93;3.43;;;3.10;99.90;;;;;;2072556;28;20633;-67
2023/05/18 02:23:45;;;;;;;7.60;3.55;;;3.00;99.90;;;;;;2070073;28;20209;-67
2023/05/18 02:24:46;;;;;;;5.63;3.47;;;2.90;99.90;;;;;;2058816;28;20590;-68
2023/05/18 02:25:47;;;;;;;8.60;3.67;;;3.00;99.90;;;;;;2066028;28;20265;-67
2023/05/18 02:26:48;;;;;;;5.07;3.53;;;3.00;99.90;;;;;;2058346;28;20220;-67
2023/05/18 02:27:49;;;;;;;7.00;3.13;;;3.00;99.90;;;;;;2066844;28;20199;-67
2023/05/18 02:28:51;;;;;;;7.65;3.28;;;3.10;99.90;;;;;;2064476;28;20207;-67
2023/05/18 02:29:52;;;;;;;8.57;3.50;;;3.00;99.90;;;;;;2051933;28;20635;-67
2023/05/18 02:30:53;;;;;;;7.15;3.15;;;3.00;99.90;;;;;;2051236;28;20633;-68
2023/05/18 02:31:54;;;;;;;7.80;3.90;;;3.00;99.90;;;;;;2056793;28;20208;-67
2023/05/18 02:32:56;;;;;;;7.13;3.30;;;3.00;99.90;;;;;;2056852;28;20202;-67
2023/05/18 02:33:57;;;;;;;6.63;3.85;;;3.10;99.90;;;;;;2056571;28;20726;-67
2023/05/18 02:35:01;;;;;;;10.90;3.93;;;3.00;99.90;;;;;;2057654;28;20271;-67
2023/05/18 02:36:02;;;;;;;6.60;3.15;;;3.10;99.90;;;;;;2060668;28;20286;-68
2023/05/18 02:37:03;;;;;;;6.72;3.15;;;3.10;99.90;;;;;;2057226;28;20316;-68
2023/05/18 02:38:04;;;;;;;8.63;3.92;;;3.10;99.90;;;;;;2058816;28;20339;-67
2023/05/18 02:39:07;;;;;;;4.60;3.33;;;3.00;99.90;;;;;;2048061;28;20247;-66
2023/05/18 02:40:13;;;;;;;7.15;3.88;;;3.10;99.90;;;;;;2060789;28;20652;-67
2023/05/18 02:41:14;;;;;;;7.30;3.75;;;3.10;99.90;;;;;;2057292;28;20234;-67
2023/05/18 02:42:15;;;;;;;8.00;4.07;;;3.00;99.90;;;;;;2054827;28;20263;-67
2023/05/18 02:43:15;;;;;;;8.10;4.07;;;2.90;99.90;;;;;;2055415;28;20226;-67
2023/05/18 02:44:16;;;;;;;7.33;3.20;;;2.90;99.90;;;;;;2056124;28;20227;-67
2023/05/18 02:45:19;;;;;;;4.75;3.42;;;2.90;99.90;;;;;;2055499;28;20262;-67
2023/05/18 02:46:20;;;;;;;5.30;3.28;;;2.90;99.90;;;;;;2051605;28;20233;-67
2023/05/18 02:47:21;;;;;;;7.15;3.50;;;2.80;99.90;;;;;;2053354;28;20229;-68
2023/05/18 02:48:22;;;;;;;5.57;3.30;;;2.80;99.90;;;;;;2054684;28;20715;-66
2023/05/18 02:49:22;;;;;;;7.20;3.33;;;2.90;99.90;;;;;;2055633;28;20710;-68
2023/05/18 02:50:23;;;;;;;6.30;3.40;;;2.90;99.90;;;;;;2055571;28;20281;-67
2023/05/18 02:51:26;;;;;;;8.37;3.23;;;3.00;99.90;;;;;;2054329;28;20295;-67
2023/05/18 02:52:27;;;;;;;6.00;3.40;;;2.90;99.90;;;;;;2044989;28;20693;-67
2023/05/18 02:53:29;;;;;;;5.70;3.47;;;3.00;99.90;;;;;;2059743;28;20229;-67
2023/05/18 02:54:30;;;;;;;6.60;3.40;;;3.00;99.90;;;;;;2062558;28;20609;-67
2023/05/18 02:55:31;;;;;;;8.35;3.75;;;3.00;99.90;;;;;;2061074;28;20785;-67
2023/05/18 02:56:32;;;;;;;5.70;3.63;;;3.00;99.90;;;;;;2059339;28;20240;-66
2023/05/18 02:57:32;;;;;;;8.43;3.93;;;3.00;99.90;;;;;;2053746;28;20231;-67
2023/05/18 02:58:33;;;;;;;4.90;3.20;;;3.00;99.90;;;;;;2062463;28;20234;-67
2023/05/18 02:59:35;;;;;;;7.60;3.20;;;3.00;99.90;;;;;;2062550;28;20238;-67
2023/05/18 03:00:35;;;;;;;6.45;3.30;;;3.00;99.90;;;;;;2044789;29;20267;-67
2023/05/18 03:01:37;;;;;;;8.20;3.57;;;3.10;99.90;;;;;;2054649;28;20233;-67
2023/05/18 03:02:39;;;;;;;4.97;3.22;;;3.10;99.90;;;;;;2055641;28;20235;-67
2023/05/18 03:03:41;;;;;;;7.05;3.40;;;3.10;99.90;;;;;;2056778;28;20234;-67
2023/05/18 03:04:42;;;;;;;6.28;3.20;;;3.10;99.90;;;;;;2053856;28;20243;-67
2023/05/18 03:05:43;;;;;;;7.70;3.92;;;3.00;99.90;;;;;;2049466;28;20205;-67
2023/05/18 03:06:45;;;;;;;7.40;3.57;;;3.00;99.90;;;;;;2060069;28;20678;-67
2023/05/18 03:07:49;;;;;;;6.55;3.88;;;3.00;99.90;;;;;;2058813;28;20200;-68
2023/05/18 03:08:50;;;;;;;6.05;3.50;;;3.00;99.90;;;;;;2055871;28;20197;-67
2023/05/18 03:09:51;;;;;;;13.93;4.27;;;2.90;99.90;;;;;;2051035;28;20198;-68
2023/05/18 03:10:51;;;;;;;7.57;3.37;;;2.90;99.90;;;;;;2055037;28;20196;-67
2023/05/18 03:11:52;;;;;;;6.90;3.90;;;3.00;99.90;;;;;;2049789;28;20588;-67
2023/05/18 03:12:53;;;;;;;7.73;3.77;;;2.90;99.90;;;;;;2054132;28;20678;-67
2023/05/18 03:13:54;;;;;;;6.27;3.53;;;3.00;99.90;;;;;;2056196;28;20188;-67
2023/05/18 03:14:55;;;;;;;9.07;4.60;;;3.00;99.90;;;;;;2058418;28;20199;-67
2023/05/18 03:15:56;;;;;;;7.83;4.20;;;3.10;99.90;;;;;;2045744;28;20203;-67
2023/05/18 03:16:57;;;;;;;9.73;4.18;;;3.20;99.90;;;;;;2055259;28;20185;-68
2023/05/18 03:18:00;;;;;;;8.67;4.23;;;3.10;99.90;;;;;;2047289;28;20657;-67
2023/05/18 03:19:01;;;;;;;8.95;5.25;;;3.20;99.90;;;;;;2050857;28;20237;-67
2023/05/18 03:20:04;;;;;;;6.40;4.10;;;3.10;99.90;;;;;;2065523;28;20235;-67
2023/05/18 03:21:05;;;;;;;10.27;4.00;;;3.10;99.90;;;;;;2061847;28;20563;-67
2023/05/18 03:22:05;;;;;;;10.53;3.73;;;3.10;99.90;;;;;;2057388;28;20707;-67
2023/05/18 03:23:07;;;;;;;9.10;4.03;;;3.00;99.90;;;;;;2054359;28;20231;-67
2023/05/18 03:24:13;;;;;;;8.60;3.92;;;3.10;99.90;;;;;;2059428;28;20733;-67
2023/05/18 03:25:15;;;;;;;7.22;4.05;;;3.20;99.90;;;;;;2070937;28;20234;-68
2023/05/18 03:26:17;;;;;;;6.00;3.55;;;3.10;99.90;;;;;;2068073;28;20231;-67
2023/05/18 03:27:21;;;;;;;5.72;3.33;;;3.20;99.90;;;;;;2055250;28;20229;-68
2023/05/18 03:28:22;;;;;;;8.20;4.07;;;3.20;99.90;;;;;;2060418;28;20329;-67
2023/05/18 03:29:23;;;;;;;6.57;3.83;;;3.20;99.90;;;;;;2055308;28;20233;-67
2023/05/18 03:30:24;;;;;;;7.80;3.90;;;3.20;99.90;;;;;;2055268;28;20226;-67
2023/05/18 03:31:25;;;;;;;6.03;4.07;;;3.20;99.90;;;;;;2058812;28;20229;-68
2023/05/18 03:32:27;;;;;;;6.38;3.70;;;3.10;99.90;;;;;;2052718;28;20482;-67
2023/05/18 03:33:28;;;;;;;7.45;3.50;;;3.10;99.90;;;;;;2063351;28;20242;-66
2023/05/18 03:34:29;;;;;;;7.35;3.83;;;3.00;99.90;;;;;;2069773;28;20254;-67
2023/05/18 03:35:30;;;;;;;6.80;3.60;;;3.00;99.90;;;;;;2062932;28;20614;-67
2023/05/18 03:36:30;;;;;;;7.30;3.73;;;3.00;99.90;;;;;;2064784;28;20665;-67
2023/05/18 03:37:31;;;;;;;7.80;4.27;;;3.10;99.90;;;;;;2067483;28;20314;-66
2023/05/18 03:38:32;;;;;;;7.17;3.83;;;3.10;99.90;;;;;;2051542;28;20239;-66
2023/05/18 03:39:33;;;;;;;7.30;4.57;;;3.00;99.90;;;;;;2050185;28;20480;-67
2023/05/18 03:40:35;;;;;;;8.37;4.30;;;3.00;99.90;;;;;;2057498;28;20231;-67
2023/05/18 03:41:36;;;;;;;5.60;3.97;;;3.00;99.90;;;;;;2052059;28;20283;-67
2023/05/18 03:42:38;;;;;;;9.38;4.00;;;2.90;99.90;;;;;;2055225;28;20239;-66
2023/05/18 03:43:39;;;;;;;8.13;3.90;;;2.80;99.90;;;;;;2050836;28;20232;-66
2023/05/18 03:44:40;;;;;;;12.30;4.30;;;2.80;99.90;;;;;;2042632;28;20291;-67
2023/05/18 03:45:41;;;;;;;11.97;4.60;;;2.80;99.90;;;;;;2055755;28;20716;-68
2023/05/18 03:46:42;;;;;;;7.43;4.27;;;2.90;99.90;;;;;;2055513;28;20205;-67
2023/05/18 03:47:43;;;;;;;7.83;3.73;;;2.80;99.90;;;;;;2054730;28;20191;-68
2023/05/18 03:48:43;;;;;;;7.00;4.25;;;2.70;99.90;;;;;;2058620;28;20182;-69
2023/05/18 03:49:45;;;;;;;8.47;4.10;;;2.80;99.90;;;;;;2052885;28;20191;-67
2023/05/18 03:50:45;;;;;;;8.55;4.57;;;2.80;99.90;;;;;;2051496;28;20187;-66
2023/05/18 03:51:47;;;;;;;7.00;4.10;;;2.80;99.90;;;;;;2053811;28;20314;-66
2023/05/18 03:52:47;;;;;;;9.73;5.27;;;2.80;99.90;;;;;;2060231;28;20216;-67
2023/05/18 03:53:48;;;;;;;6.50;3.77;;;2.90;99.90;;;;;;2050533;28;20189;-67
2023/05/18 03:54:49;;;;;;;8.70;4.00;;;2.90;99.90;;;;;;2051424;28;20219;-67
2023/05/18 03:55:51;;;;;;;7.65;4.15;;;2.90;99.90;;;;;;2047107;28;20191;-66
2023/05/18 03:56:51;;;;;;;7.20;4.22;;;3.00;99.90;;;;;;2056915;28;20179;-68
2023/05/18 03:57:52;;;;;;;11.77;4.60;;;3.00;99.90;;;;;;2061708;28;20211;-67
2023/05/18 03:58:53;;;;;;;14.47;4.47;;;3.00;99.90;;;;;;2062119;28;20633;-67
2023/05/18 03:59:56;;;;;;;12.17;4.57;;;3.00;99.90;;;;;;2053778;28;20288;-67
2023/05/18 04:00:57;;;;;;;8.23;4.10;;;3.00;99.90;;;;;;2048932;28;20196;-66
2023/05/18 04:01:59;;;;;;;9.82;4.75;;;2.80;99.90;;;;;;2050332;28;20262;-66
2023/05/18 04:03:02;;;;;;;9.02;4.10;;;2.80;99.90;;;;;;2059975;28;20239;-65
2023/05/18 04:04:02;;;;;;;8.48;4.40;;;2.80;99.90;;;;;;2053246;28;20225;-66
2023/05/18 04:05:04;;;;;;;7.80;4.07;;;2.80;99.90;;;;;;2054975;28;20313;-66
2023/05/18 04:06:09;;;;;;;7.40;4.28;;;2.90;99.90;;;;;;2051127;28;20469;-66
2023/05/18 04:07:10;;;;;;;8.18;4.35;;;3.00;99.90;;;;;;2052339;28;20258;-67
2023/05/18 04:08:13;;;;;;;6.47;3.92;;;3.00;99.90;;;;;;2055402;28;20231;-67
2023/05/18 04:09:16;;;;;;;11.35;5.00;;;3.00;99.90;;;;;;2057097;28;20234;-67
2023/05/18 04:10:18;;;;;;;11.75;4.32;;;3.00;99.90;;;;;;2057522;28;20246;-67
2023/05/18 04:11:20;;;;;;;6.18;3.92;;;3.00;99.90;;;;;;2055980;28;21288;-67
2023/05/18 04:12:21;;;;;;;10.18;4.88;;;3.10;99.90;;;;;;2063732;28;20241;-67
2023/05/18 04:13:22;;;;;;;7.00;3.97;;;3.10;99.90;;;;;;2056574;28;20243;-67
2023/05/18 04:14:23;;;;;;;10.13;5.00;;;3.10;99.90;;;;;;2052073;28;20323;-67
2023/05/18 04:15:24;;;;;;;7.65;3.95;;;3.10;99.90;;;;;;2054638;28;20260;-67
2023/05/18 04:16:27;;;;;;;10.65;5.03;;;3.10;99.90;;;;;;2054904;28;20309;-67
2023/05/18 04:17:28;;;;;;;8.63;4.68;;;3.10;99.90;;;;;;2055945;28;20231;-67
2023/05/18 04:18:30;;;;;;;8.73;4.55;;;3.10;99.90;;;;;;2059419;28;20323;-67
2023/05/18 04:19:36;;;;;;;8.45;4.40;;;3.20;99.90;;;;;;2053292;28;20282;-66
2023/05/18 04:20:37;;;;;;;9.80;4.63;;;3.20;99.90;;;;;;2053988;28;20263;-67
2023/05/18 04:21:42;;;;;;;10.63;5.27;;;3.20;99.90;;;;;;2050525;28;20233;-67
2023/05/18 04:22:46;;;;;;;9.95;5.15;;;3.30;99.90;;;;;;2055498;28;20232;-67
2023/05/18 04:23:47;;;;;;;9.15;5.32;;;3.20;99.90;;;;;;2061705;28;20212;-66
2023/05/18 04:24:49;;;;;;;8.33;4.53;;;3.30;99.90;;;;;;2059888;28;20621;-67
2023/05/18 04:25:50;;;;;;;14.75;5.43;;;3.20;99.90;;;;;;2045798;29;20476;-67
2023/05/18 04:26:52;;;;;;;8.50;4.80;;;3.30;99.90;;;;;;2048455;28;20197;-67
2023/05/18 04:27:55;;;;;;;12.75;5.80;;;3.30;99.90;;;;;;2049461;28;20199;-67
2023/05/18 04:28:59;;;;;;;9.43;5.15;;;3.40;99.90;;;;;;2050684;28;20275;-67
2023/05/18 04:30:00;;;;;;;9.18;5.10;;;3.40;99.90;;;;;;2056211;28;20226;-67
2023/05/18 04:31:01;;;;;;;11.10;4.82;;;3.40;99.90;;;;;;2057708;28;20286;-67
2023/05/18 04:32:01;;;;;;;8.00;4.60;;;3.40;99.90;;;;;;2067716;28;20318;-66
2023/05/18 04:33:03;;;;;;;9.20;4.77;;;3.30;99.90;;;;;;2060572;28;20255;-67
2023/05/18 04:34:05;;;;;;;10.15;4.85;;;3.40;99.90;;;;;;2052291;28;20247;-67
2023/05/18 04:35:07;;;;;;;10.65;5.57;;;3.40;99.90;;;;;;2056698;28;20647;-66
2023/05/18 04:36:09;;;;;;;8.18;4.45;;;3.40;99.90;;;;;;2062909;28;20228;-67
2023/05/18 04:37:10;;;;;;;9.27;4.60;;;3.50;99.90;;;;;;2056321;28;20235;-67
2023/05/18 04:38:11;;;;;;;8.77;4.63;;;3.40;99.90;;;;;;2048115;28;20240;-67
2023/05/18 04:39:12;;;;;;;8.27;4.53;;;3.40;99.90;;;;;;2048092;28;20537;-64
2023/05/18 04:40:12;;;;;;;11.37;4.70;;;3.50;99.90;;;;;;2058718;28;20725;-67
2023/05/18 04:41:19;;;;;;;9.30;5.07;;;3.50;99.90;;;;;;2062447;28;20896;-67
2023/05/18 04:42:21;;;;;;;10.38;5.32;;;3.60;99.90;;;;;;2055080;28;20688;-67
2023/05/18 04:43:21;;;;;;;11.35;5.80;;;3.60;99.90;;;;;;2058126;28;20229;-67
2023/05/18 04:44:35;;;;;;;11.47;5.33;;;3.60;99.90;;;;;;2059798;28;20245;-67
2023/05/18 04:45:36;;;;;;;9.73;5.00;;;3.60;99.90;;;;;;2049119;28;20230;-67
2023/05/18 04:46:38;;;;;;;8.18;4.75;;;3.60;99.90;;;;;;2055256;28;20226;-67
2023/05/18 04:47:39;;;;;;;7.50;4.70;;;3.80;99.90;;;;;;2041861;28;20286;-67
2023/05/18 04:48:40;;;;;;;9.17;5.30;;;3.80;99.90;;;;;;2047175;28;20312;-68
2023/05/18 04:49:42;;;;;;;15.95;5.10;;;3.80;99.90;;;;;;2056632;28;20185;-68
2023/05/18 04:50:44;;;;;;;10.73;4.65;;;3.90;99.90;;;;;;2048956;28;20190;-68
2023/05/18 04:51:45;;;;;;;10.80;4.40;;;3.80;99.90;;;;;;2056622;28;20304;-67
2023/05/18 04:52:48;;;;;;;10.48;5.15;;;3.80;99.90;;;;;;2054198;28;20578;-67
2023/05/18 04:53:51;;;;;;;10.68;4.43;;;3.80;99.90;;;;;;2056298;28;20186;-67
2023/05/18 04:54:52;;;;;;;10.55;4.38;;;3.80;99.90;;;;;;2063515;28;20268;-66
2023/05/18 04:55:53;;;;;;;9.90;4.63;;;3.70;99.90;;;;;;2062287;28;20676;-67
2023/05/18 04:56:54;;;;;;;6.07;3.77;;;3.80;99.90;;;;;;2060612;28;20191;-67
2023/05/18 04:57:55;;;;;;;7.60;4.43;;;3.80;99.90;;;;;;2059900;28;20438;-67
2023/05/18 04:58:58;;;;;;;7.82;4.10;;;3.80;99.90;;;;;;2053509;28;20186;-67
2023/05/18 04:59:59;;;;;;;7.72;4.53;;;3.80;99.90;;;;;;2060181;28;20182;-67
2023/05/18 05:01:00;;;;;;;7.13;4.18;;;3.80;99.90;;;;;;2073278;28;20243;-67
2023/05/18 05:02:02;;;;;;;9.35;4.85;;;3.90;99.90;;;;;;2067722;28;20236;-66
2023/05/18 05:03:03;;;;;;;6.70;4.07;;;3.90;99.90;;;;;;2062068;28;20767;-67
2023/05/18 05:04:05;;;;;;;9.80;4.53;;;4.00;99.90;;;;;;2056208;28;20289;-66
2023/05/18 05:05:07;;;;;;;11.45;4.30;;;4.00;99.90;;;;;;2047944;28;20294;-67
2023/05/18 05:06:08;;;;;;;6.97;3.70;;;3.90;99.90;;;;;;2058562;28;20238;-67
2023/05/18 05:07:10;;;;;;;9.30;4.78;;;3.90;99.90;;;;;;2055857;28;20226;-67
2023/05/18 05:08:11;;;;;;;8.98;4.47;;;4.00;99.90;;;;;;2060178;28;20229;-67
2023/05/18 05:09:13;;;;;;;6.90;3.95;;;4.00;99.90;;;;;;2059881;28;20645;-67
2023/05/18 05:10:14;;;;;;;9.25;4.25;;;4.10;99.90;;;;;;2056015;28;20585;-67
2023/05/18 05:11:15;;;;;;;8.57;4.30;;;4.10;99.90;;;;;;2068558;28;20255;-67
2023/05/18 05:12:17;;;;;;;4.87;3.80;;;4.10;99.90;;;;;;2047388;28;20246;-67
2023/05/18 05:13:18;;;;;;;8.20;4.22;;;4.10;99.90;;;;;;2048322;28;20237;-66
2023/05/18 05:14:19;;;;;;;6.37;4.10;;;4.00;99.90;;;;;;2048402;28;20667;-67
2023/05/18 05:15:19;;;;;;;10.70;4.43;;;4.10;99.90;;;;;;2055748;28;20238;-67
2023/05/18 05:16:20;;;;;;;10.00;4.33;;;4.10;99.90;;;;;;2064396;28;20644;-67
2023/05/18 05:17:22;;;;;;;7.07;3.80;;;4.10;99.90;;;;;;2055155;28;20234;-67
2023/05/18 05:18:24;;;;;;;6.45;3.95;;;4.10;99.90;;;;;;2064020;28;20286;-66
2023/05/18 05:19:25;;;;;;;7.22;3.75;;;4.10;99.90;;;;;;2064007;28;20350;-67
2023/05/18 05:20:26;;;;;;;8.33;3.70;;;4.20;99.90;;;;;;2065015;28;20316;-67
2023/05/18 05:21:27;;;;;;;9.33;4.63;;;4.10;99.90;;;;;;2059766;28;20300;-67
2023/05/18 05:22:28;;;;;;;9.75;4.45;;;4.10;99.90;;;;;;2067271;28;20228;-67
2023/05/18 05:23:29;;;;;;;8.57;4.13;;;4.00;99.90;;;;;;2037634;28;20233;-67
2023/05/18 05:24:30;;;;;;;10.25;4.30;;;4.10;99.90;;;;;;2044336;28;20239;-67
2023/05/18 05:25:31;;;;;;;10.30;4.60;;;4.10;99.90;;;;;;2063409;28;20657;-67
2023/05/18 05:26:34;;;;;;;6.30;4.00;;;4.20;99.90;;;;;;2054144;28;20304;-67
2023/05/18 05:27:34;;;;;;;8.48;4.35;;;4.20;99.90;;;;;;2053132;28;20611;-67
2023/05/18 05:28:35;;;;;;;8.80;4.33;;;4.20;99.90;;;;;;2054910;28;20269;-67
2023/05/18 05:29:36;;;;;;;6.97;4.00;;;4.20;99.90;;;;;;2055446;28;20325;-67
2023/05/18 05:30:36;;;;;;;9.87;4.33;;;4.20;99.90;;;;;;2058451;28;20229;-67